Time;durP1;ratioP1;P1;durP2;ratioP2;P2;SDS_P1;SDS_P2;PMS_P1;PMS_P2;Temp;Humidity;BMP_temperature;BMP_pressure;BME280_temperature;BME280_humidity;BME280_pressure;Samples;Min_cycle;Max_cycle;Signal;HPM_P1;HPM_P2
2022/12/15 00:39:57;;;;;;;73.43;24.83;;;-1.50;99.90;;;;;;4998840;28;20068;-64
2022/12/15 00:42:27;;;;;;;74.65;25.42;;;-1.50;99.90;;;;;;5003642;28;20044;-66
2022/12/15 00:44:54;;;;;;;73.13;23.98;;;-1.50;99.90;;;;;;5006736;28;20528;-65
2022/12/15 00:47:19;;;;;;;73.70;24.35;;;-1.50;99.90;;;;;;5002447;28;20041;-64
2022/12/15 01:20:17;;;;;;;66.30;21.40;;;-1.70;99.90;;;;;;4994234;28;20045;-65
2022/12/15 01:22:48;;;;;;;64.75;22.08;;;-1.70;99.90;;;;;;4996572;28;20585;-65
2022/12/15 01:25:15;;;;;;;65.65;22.08;;;-1.70;99.90;;;;;;4997619;28;20037;-66
2022/12/15 01:27:41;;;;;;;69.82;23.08;;;-1.60;99.90;;;;;;5004029;28;20533;-64
2022/12/15 01:30:09;;;;;;;73.88;24.05;;;-1.60;99.90;;;;;;5002490;28;20052;-70
2022/12/15 01:32:35;;;;;;;77.50;24.35;;;-1.60;99.90;;;;;;4994559;28;20057;-65
2022/12/15 01:35:03;;;;;;;69.97;22.25;;;-1.60;99.90;;;;;;4993361;28;20077;-65
2022/12/15 01:37:28;;;;;;;67.40;23.23;;;-1.60;99.90;;;;;;4990279;28;20053;-65
2022/12/15 01:42:38;;;;;;;74.75;24.08;;;-1.60;99.90;;;;;;5005467;28;20219;-65
2022/12/15 01:45:22;;;;;;;76.97;24.83;;;-1.60;99.90;;;;;;4995890;28;20478;-66
2022/12/15 01:48:10;;;;;;;67.40;22.50;;;-1.60;99.90;;;;;;4997549;28;20041;-66
2022/12/15 01:50:44;;;;;;;64.90;22.42;;;-1.70;99.90;;;;;;4996837;28;20022;-64
2022/12/15 01:53:10;;;;;;;67.55;23.08;;;-1.70;99.90;;;;;;5002629;28;20042;-71
2022/12/15 01:55:39;;;;;;;74.00;23.63;;;-1.70;99.90;;;;;;4993261;28;20048;-64
2022/12/15 01:58:07;;;;;;;73.93;22.40;;;-1.70;99.90;;;;;;4995636;28;20056;-64
2022/12/15 02:00:33;;;;;;;73.13;24.20;;;-1.70;99.90;;;;;;4992378;28;20058;-66
2022/12/15 02:03:00;;;;;;;75.00;22.98;;;-1.70;99.90;;;;;;5001468;28;20034;-64
2022/12/15 02:05:28;;;;;;;76.22;23.88;;;-1.80;99.90;;;;;;4990754;28;21499;-65
2022/12/15 02:07:54;;;;;;;67.13;22.42;;;-1.80;99.90;;;;;;4990144;28;20434;-64
2022/12/15 02:10:23;;;;;;;70.80;22.85;;;-1.80;99.90;;;;;;5005968;28;20030;-65
2022/12/15 02:13:12;;;;;;;70.53;22.88;;;-1.80;99.90;;;;;;5000287;28;20434;-65
2022/12/15 02:15:49;;;;;;;71.43;22.45;;;-1.80;99.90;;;;;;4993244;28;20041;-65
2022/12/15 02:18:37;;;;;;;64.80;20.40;;;-1.90;99.90;;;;;;5000524;28;20391;-64
2022/12/15 02:21:16;;;;;;;74.30;21.52;;;-1.80;99.90;;;;;;4995447;28;20395;-65
2022/12/15 02:24:01;;;;;;;72.28;22.77;;;-1.90;99.90;;;;;;4999867;28;20125;-65
2022/12/15 02:26:57;;;;;;;68.30;20.90;;;-2.00;99.90;;;;;;4987988;28;20158;-66
2022/12/15 02:29:45;;;;;;;62.83;20.48;;;-2.00;99.90;;;;;;4995389;28;20041;-64
2022/12/15 02:32:14;;;;;;;66.78;21.42;;;-2.00;99.90;;;;;;5000121;28;20069;-68
2022/12/15 02:34:42;;;;;;;70.43;21.83;;;-2.00;99.90;;;;;;4992644;28;20072;-65
2022/12/15 02:37:15;;;;;;;71.57;22.33;;;-2.00;99.90;;;;;;4991789;28;20038;-65
2022/12/15 02:39:41;;;;;;;76.95;21.90;;;-2.00;99.90;;;;;;4992594;28;20444;-65
2022/12/15 02:42:11;;;;;;;71.68;22.63;;;-2.00;99.90;;;;;;4988150;28;20426;-66
2022/12/15 02:44:42;;;;;;;86.32;24.88;;;-1.90;99.90;;;;;;4992289;28;20473;-64
2022/12/15 02:47:26;;;;;;;85.75;23.77;;;-1.90;99.90;;;;;;4993340;28;20054;-65
2022/12/15 02:50:27;;;;;;;80.03;22.95;;;-1.90;99.90;;;;;;4991514;28;20034;-65
2022/12/15 02:52:58;;;;;;;80.82;23.08;;;-2.00;99.90;;;;;;4965363;28;20883;-64
2022/12/15 02:55:39;;;;;;;80.85;23.73;;;-2.00;99.90;;;;;;5004053;28;20498;-65
2022/12/15 02:58:10;;;;;;;91.10;24.20;;;-2.00;99.90;;;;;;4995963;28;20413;-65
2022/12/15 03:00:40;;;;;;;82.50;23.40;;;-1.90;99.90;;;;;;5004310;28;20812;-65
2022/12/15 03:03:07;;;;;;;82.55;24.73;;;-2.00;99.90;;;;;;5001327;28;20061;-65
2022/12/15 03:05:32;;;;;;;84.05;23.95;;;-2.00;99.90;;;;;;4988199;28;20642;-64
2022/12/15 03:07:58;;;;;;;82.28;23.48;;;-2.00;99.90;;;;;;5000521;28;20109;-65
2022/12/15 03:10:25;;;;;;;82.90;24.02;;;-2.10;99.90;;;;;;5000443;28;20026;-66
2022/12/15 03:12:51;;;;;;;86.72;24.30;;;-2.10;99.90;;;;;;5003148;28;20050;-65
2022/12/15 03:15:17;;;;;;;80.45;23.13;;;-2.10;99.90;;;;;;4993000;28;20037;-69
2022/12/15 03:17:43;;;;;;;75.70;23.05;;;-2.10;99.90;;;;;;4991433;28;20451;-63
2022/12/15 03:20:09;;;;;;;91.35;25.20;;;-2.20;99.90;;;;;;4994167;28;20037;-65
2022/12/15 03:22:36;;;;;;;81.18;23.75;;;-2.10;99.90;;;;;;4990429;28;20651;-64
2022/12/15 03:25:02;;;;;;;81.20;22.95;;;-2.10;99.90;;;;;;5000961;28;20066;-65
2022/12/15 03:27:28;;;;;;;91.63;25.13;;;-2.10;99.90;;;;;;5003262;28;20057;-66
2022/12/15 03:29:54;;;;;;;87.75;24.80;;;-2.00;99.90;;;;;;4999790;28;20069;-65
2022/12/15 03:32:19;;;;;;;82.60;24.73;;;-2.10;99.90;;;;;;5002826;28;20038;-64
2022/12/15 03:34:45;;;;;;;83.32;23.45;;;-2.10;99.90;;;;;;4990526;28;20093;-64
2022/12/15 03:37:11;;;;;;;93.93;26.10;;;-2.10;99.90;;;;;;4995106;28;20093;-65
2022/12/15 03:39:36;;;;;;;95.35;26.25;;;-2.10;99.90;;;;;;4994578;28;20263;-64
2022/12/15 03:42:02;;;;;;;87.63;25.02;;;-2.20;99.90;;;;;;5007326;28;20038;-67
2022/12/15 03:44:28;;;;;;;90.13;26.73;;;-2.20;99.90;;;;;;5005854;28;20105;-67
2022/12/15 03:46:54;;;;;;;92.32;25.02;;;-2.20;99.90;;;;;;5012122;28;20466;-65
2022/12/15 03:49:20;;;;;;;88.20;24.77;;;-2.10;99.90;;;;;;4996696;28;20034;-65
2022/12/15 03:51:45;;;;;;;98.10;28.73;;;-2.00;99.90;;;;;;4992869;28;20054;-65
2022/12/15 03:54:12;;;;;;;87.13;25.77;;;-2.00;99.90;;;;;;4991795;28;20042;-64
2022/12/15 03:56:38;;;;;;;101.15;27.27;;;-2.10;99.90;;;;;;5007665;28;20472;-65
2022/12/15 03:59:04;;;;;;;95.82;26.40;;;-2.10;99.90;;;;;;5001447;28;20046;-65
2022/12/15 04:01:34;;;;;;;89.95;27.02;;;-2.10;99.90;;;;;;5001502;28;20495;-65
2022/12/15 04:04:01;;;;;;;84.82;24.85;;;-2.10;99.90;;;;;;4996771;28;20117;-65
2022/12/15 04:06:28;;;;;;;91.10;27.00;;;-2.00;99.90;;;;;;5007171;28;20030;-69
2022/12/15 04:08:54;;;;;;;86.20;26.42;;;-2.10;99.90;;;;;;5023739;28;20033;-68
2022/12/15 04:11:19;;;;;;;85.85;25.65;;;-2.10;99.90;;;;;;5003280;28;20034;-68
2022/12/15 04:13:45;;;;;;;95.68;27.35;;;-2.10;99.90;;;;;;5010368;28;20029;-65
2022/12/15 04:16:11;;;;;;;88.38;27.17;;;-2.10;99.90;;;;;;5004984;28;20444;-64
2022/12/15 04:18:37;;;;;;;95.38;26.83;;;-2.20;99.90;;;;;;5008931;28;20280;-65
2022/12/15 04:21:03;;;;;;;85.32;26.65;;;-2.20;99.90;;;;;;5006560;28;20026;-65
2022/12/15 04:23:28;;;;;;;96.57;27.70;;;-2.20;99.90;;;;;;4997890;28;20520;-63
2022/12/15 05:31:54;;;;;;;82.30;26.38;;;-2.20;99.90;;;;;;5010010;28;20073;-66
2022/12/15 05:34:28;;;;;;;88.97;28.38;;;-2.20;99.90;;;;;;5007002;28;20084;-63
2022/12/15 05:36:55;;;;;;;82.70;26.15;;;-2.20;99.90;;;;;;5029921;28;20033;-64
2022/12/15 05:39:22;;;;;;;82.85;27.33;;;-2.30;99.90;;;;;;4996069;28;20062;-65
2022/12/15 05:41:49;;;;;;;89.10;27.75;;;-2.30;99.90;;;;;;5002808;28;20041;-65
2022/12/15 05:44:14;;;;;;;82.07;26.27;;;-2.30;99.90;;;;;;5006170;28;20048;-64
2022/12/15 05:46:40;;;;;;;90.13;26.75;;;-2.40;99.90;;;;;;4997411;28;20030;-66
2022/12/15 05:49:07;;;;;;;102.43;31.05;;;-2.40;99.90;;;;;;4989397;28;20081;-65
2022/12/15 05:51:36;;;;;;;84.55;26.67;;;-2.40;99.90;;;;;;5005825;28;20479;-65
2022/12/15 05:54:02;;;;;;;87.07;28.23;;;-2.40;99.90;;;;;;5008534;28;20046;-66
2022/12/15 05:56:27;;;;;;;83.85;27.75;;;-2.40;99.90;;;;;;5008612;28;20030;-66
2022/12/15 05:58:57;;;;;;;97.40;28.00;;;-2.50;99.90;;;;;;5007103;28;20052;-65
2022/12/15 06:01:24;;;;;;;92.90;27.63;;;-2.50;99.90;;;;;;5008916;28;20075;-68
2022/12/15 06:03:50;;;;;;;89.70;29.23;;;-2.40;99.90;;;;;;5009743;28;20072;-64
2022/12/15 06:06:16;;;;;;;94.43;27.63;;;-2.40;99.90;;;;;;5008676;28;20034;-64
2022/12/15 06:08:42;;;;;;;98.68;29.67;;;-2.40;99.90;;;;;;5008963;28;20040;-64
2022/12/15 06:11:14;;;;;;;91.57;30.65;;;-2.40;99.90;;;;;;4989934;28;20501;-66
2022/12/15 06:13:40;;;;;;;91.55;28.98;;;-2.40;99.90;;;;;;4995158;28;20060;-65
2022/12/15 06:16:11;;;;;;;97.07;29.08;;;-2.30;99.90;;;;;;5005425;28;20492;-65
2022/12/15 06:18:38;;;;;;;;;;;-2.30;99.90;;;;;;5008266;28;20042;-65
2022/12/15 06:21:07;;;;;;;94.03;26.90;;;-2.30;99.90;;;;;;5006451;28;19917;-66
2022/12/15 06:23:36;;;;;;;81.00;25.52;;;-2.30;99.90;;;;;;5007616;28;20038;-66
2022/12/15 06:26:08;;;;;;;82.35;26.45;;;-2.30;99.90;;;;;;5008107;28;20112;-65
2022/12/15 06:28:34;;;;;;;84.18;27.90;;;-2.30;99.90;;;;;;5001865;28;20061;-64
2022/12/15 06:31:04;;;;;;;96.00;28.85;;;-2.30;99.90;;;;;;5007516;28;20061;-65
2022/12/15 06:33:29;;;;;;;87.45;27.88;;;-2.30;99.90;;;;;;5008220;28;20025;-69
2022/12/15 06:35:55;;;;;;;93.10;29.33;;;-2.30;99.90;;;;;;5006643;28;20034;-64
2022/12/15 06:38:21;;;;;;;88.13;27.60;;;-2.40;99.90;;;;;;5006076;28;20075;-64
2022/12/15 06:41:00;;;;;;;91.65;27.63;;;-2.40;99.90;;;;;;4999439;28;20089;-64
2022/12/15 06:43:27;;;;;;;88.82;27.10;;;-2.40;99.90;;;;;;5001888;28;20494;-70
2022/12/15 06:45:53;;;;;;;86.20;27.20;;;-2.30;99.90;;;;;;5002097;28;20034;-65
2022/12/15 06:48:20;;;;;;;95.00;28.65;;;-2.30;99.90;;;;;;4992865;28;20026;-64
2022/12/15 06:50:46;;;;;;;90.22;28.42;;;-2.30;99.90;;;;;;5007447;28;20040;-65
2022/12/15 06:53:13;;;;;;;81.15;25.63;;;-2.20;99.90;;;;;;5006794;28;20045;-67
2022/12/15 06:55:39;;;;;;;76.13;25.00;;;-2.20;99.90;;;;;;4988521;28;20038;-66
2022/12/15 06:58:04;;;;;;;75.20;25.25;;;-2.20;99.90;;;;;;5005217;28;20500;-65
2022/12/15 07:00:31;;;;;;;83.25;28.02;;;-2.10;99.90;;;;;;5006263;28;20030;-68
2022/12/15 07:02:57;;;;;;;90.57;27.52;;;-2.10;99.90;;;;;;5002131;28;20081;-63
2022/12/15 07:05:23;;;;;;;87.68;28.48;;;-2.10;99.90;;;;;;5006823;28;20033;-63
2022/12/15 07:07:48;;;;;;;80.45;26.73;;;-2.10;99.90;;;;;;4989924;28;20080;-66
2022/12/15 07:10:14;;;;;;;97.57;30.33;;;-2.20;99.90;;;;;;4988534;28;20130;-65
2022/12/15 07:12:40;;;;;;;85.10;26.13;;;-2.20;99.90;;;;;;4999466;28;20041;-66
2022/12/15 07:15:06;;;;;;;86.78;27.48;;;-2.20;99.90;;;;;;5007052;28;20037;-63
2022/12/15 07:17:34;;;;;;;88.93;27.30;;;-2.20;99.90;;;;;;5006946;28;20395;-64
2022/12/15 07:20:00;;;;;;;79.55;25.05;;;-2.20;99.90;;;;;;5007358;28;20034;-65
2022/12/15 07:22:27;;;;;;;91.00;27.92;;;-2.20;99.90;;;;;;5023933;28;20049;-63
2022/12/15 07:24:53;;;;;;;83.18;26.58;;;-2.30;99.90;;;;;;4997513;28;20104;-65
2022/12/15 07:27:18;;;;;;;81.45;26.42;;;-2.30;99.90;;;;;;5000033;28;20461;-65
2022/12/15 07:29:44;;;;;;;85.20;26.30;;;-2.30;99.90;;;;;;5006014;28;20038;-65
2022/12/15 07:32:09;;;;;;;82.60;26.58;;;-2.20;99.90;;;;;;5007459;28;20119;-65
2022/12/15 07:34:35;;;;;;;80.60;26.27;;;-2.20;99.90;;;;;;5006100;28;20036;-63
2022/12/15 07:37:01;;;;;;;86.15;26.05;;;-2.30;99.90;;;;;;5010749;28;20040;-64
2022/12/15 07:39:27;;;;;;;91.47;26.80;;;-2.30;99.90;;;;;;5005402;28;20034;-64
2022/12/15 07:41:52;;;;;;;89.13;27.65;;;-2.20;99.90;;;;;;5006425;28;20030;-63
2022/12/15 07:44:18;;;;;;;80.55;26.45;;;-2.20;99.90;;;;;;5006630;28;20502;-64
2022/12/15 07:46:45;;;;;;;88.80;25.50;;;-2.30;99.90;;;;;;5006228;28;20527;-63
2022/12/15 07:49:12;;;;;;;97.05;29.60;;;-2.30;99.90;;;;;;4994729;28;20065;-70
2022/12/15 07:51:39;;;;;;;100.50;33.38;;;-2.40;99.90;;;;;;4986366;28;20087;-66
2022/12/15 07:54:05;;;;;;;124.32;37.83;;;-2.40;99.90;;;;;;4992868;28;20517;-64
2022/12/15 07:56:31;;;;;;;106.10;33.97;;;-2.40;99.90;;;;;;5000857;28;20026;-67
2022/12/15 07:58:56;;;;;;;119.18;37.00;;;-2.40;99.90;;;;;;5000596;28;20038;-63
2022/12/15 08:01:23;;;;;;;119.07;36.15;;;-2.40;99.90;;;;;;5007345;28;20442;-65
2022/12/15 08:03:49;;;;;;;111.97;35.78;;;-2.40;99.90;;;;;;5006734;28;20068;-63
2022/12/15 08:06:15;;;;;;;112.22;34.00;;;-2.30;99.90;;;;;;5004111;28;20043;-66
2022/12/15 08:08:43;;;;;;;112.60;34.70;;;-2.30;99.90;;;;;;4994770;28;20041;-64
2022/12/15 08:11:10;;;;;;;90.60;28.52;;;-2.30;99.90;;;;;;4991743;28;20034;-65
2022/12/15 08:13:37;;;;;;;93.65;29.38;;;-2.30;99.90;;;;;;4987426;28;20039;-64
2022/12/15 08:16:03;;;;;;;94.97;29.83;;;-2.40;99.90;;;;;;5001540;28;20046;-63
2022/12/15 08:18:29;;;;;;;96.25;28.98;;;-2.40;99.90;;;;;;5007125;28;20038;-64
2022/12/15 08:20:55;;;;;;;93.63;28.48;;;-2.30;99.90;;;;;;5003875;28;20030;-64
2022/12/15 08:23:20;;;;;;;90.20;27.98;;;-2.30;99.90;;;;;;5022532;28;20403;-64
2022/12/15 08:25:46;;;;;;;88.30;27.25;;;-2.30;99.90;;;;;;4991103;28;20042;-64
2022/12/15 08:28:12;;;;;;;100.32;30.83;;;-2.20;99.90;;;;;;4992089;28;20037;-64
2022/12/15 08:30:38;;;;;;;91.38;29.63;;;-2.20;99.90;;;;;;5002800;28;20030;-65
2022/12/15 08:33:03;;;;;;;91.85;28.58;;;-2.10;99.90;;;;;;5009249;28;20038;-63
2022/12/15 08:35:29;;;;;;;91.50;28.70;;;-2.10;99.90;;;;;;5008804;28;20038;-64
2022/12/15 08:37:55;;;;;;;131.77;37.88;;;-2.00;99.90;;;;;;4999883;28;20038;-64
2022/12/15 08:40:20;;;;;;;106.30;31.50;;;-1.90;99.90;;;;;;4999160;28;20360;-65
2022/12/15 08:42:46;;;;;;;140.88;40.40;;;-1.90;99.90;;;;;;5010975;28;20060;-64
2022/12/15 08:45:11;;;;;;;105.20;32.88;;;-1.90;99.90;;;;;;5009897;28;20395;-64
2022/12/15 08:47:38;;;;;;;125.90;38.08;;;-1.90;99.90;;;;;;5003294;28;20036;-65
2022/12/15 08:50:07;;;;;;;112.30;33.33;;;-1.90;99.90;;;;;;5010183;28;20030;-65
2022/12/15 08:52:34;;;;;;;104.13;30.60;;;-1.80;99.90;;;;;;5010999;28;20041;-68
2022/12/15 08:54:59;;;;;;;131.15;36.97;;;-1.80;99.90;;;;;;5007490;28;20113;-63
2022/12/15 08:57:26;;;;;;;102.30;32.42;;;-1.80;99.90;;;;;;5010195;28;20167;-65
2022/12/15 08:59:51;;;;;;;98.25;29.33;;;-1.80;99.90;;;;;;4994513;28;20026;-64
2022/12/15 09:02:17;;;;;;;99.57;28.60;;;-1.80;99.90;;;;;;4996352;28;20042;-64
2022/12/15 09:04:44;;;;;;;102.07;31.80;;;-1.70;99.90;;;;;;4990465;28;20041;-66
2022/12/15 09:07:10;;;;;;;86.55;27.15;;;-1.70;99.90;;;;;;5009221;28;20506;-62
2022/12/15 09:09:36;;;;;;;96.80;31.02;;;-1.60;99.90;;;;;;5012475;28;20026;-69
2022/12/15 09:12:01;;;;;;;89.05;27.70;;;-1.70;99.90;;;;;;5017206;28;20756;-63
2022/12/15 09:14:27;;;;;;;90.13;27.30;;;-1.70;99.90;;;;;;5009600;28;20121;-62
2022/12/15 09:16:52;;;;;;;99.13;31.05;;;-1.60;99.90;;;;;;5008379;28;20546;-65
2022/12/15 09:19:18;;;;;;;82.00;26.40;;;-1.60;99.90;;;;;;5009149;28;20038;-65
2022/12/15 09:21:44;;;;;;;93.70;29.00;;;-1.60;99.90;;;;;;5005593;28;20053;-64
2022/12/15 09:24:12;;;;;;;96.05;27.15;;;-1.60;99.90;;;;;;5009436;28;20498;-62
2022/12/15 09:26:39;;;;;;;79.95;25.42;;;-1.60;99.90;;;;;;5008393;28;20033;-66
2022/12/15 09:29:05;;;;;;;88.55;26.88;;;-1.50;99.90;;;;;;5009454;28;20037;-66
2022/12/15 09:31:36;;;;;;;75.65;25.05;;;-1.50;99.90;;;;;;5003004;28;20021;-64
2022/12/15 09:34:01;;;;;;;86.65;26.65;;;-1.50;99.90;;;;;;5017945;28;20092;-64
2022/12/15 09:36:29;;;;;;;85.45;25.38;;;-1.40;99.90;;;;;;5013239;28;20042;-66
2022/12/15 09:38:54;;;;;;;79.72;24.23;;;-1.40;99.90;;;;;;5009598;28;20033;-65
2022/12/15 09:41:28;;;;;;;82.57;26.15;;;-1.30;99.90;;;;;;4999395;28;20388;-65
2022/12/15 09:44:11;;;;;;;77.03;23.73;;;-1.20;99.90;;;;;;4989549;28;20046;-64
2022/12/15 09:46:48;;;;;;;96.07;29.15;;;-1.10;99.90;;;;;;5001390;28;20447;-69
2022/12/15 09:49:28;;;;;;;103.13;30.48;;;-1.10;99.90;;;;;;4995259;28;20062;-65
2022/12/15 09:52:22;;;;;;;94.32;26.55;;;-1.00;99.90;;;;;;4996572;28;20037;-65
2022/12/15 09:54:47;;;;;;;82.70;24.02;;;-0.90;99.90;;;;;;5007567;28;20116;-64
2022/12/15 09:57:22;;;;;;;79.20;25.15;;;-1.00;99.90;;;;;;5006912;28;20446;-66
2022/12/15 10:00:06;;;;;;;83.97;24.13;;;-0.90;99.90;;;;;;5006798;28;20761;-66
2022/12/15 10:02:58;;;;;;;69.20;23.40;;;-0.80;99.90;;;;;;5005806;28;20084;-65
2022/12/15 10:06:00;;;;;;;82.05;23.17;;;-0.90;99.90;;;;;;4990127;28;20104;-64
2022/12/15 10:08:29;;;;;;;68.63;22.60;;;-0.90;99.90;;;;;;5007492;28;20088;-65
2022/12/15 10:11:00;;;;;;;74.10;25.23;;;-0.90;99.90;;;;;;4992581;28;20125;-64
2022/12/15 10:13:32;;;;;;;81.32;25.23;;;-0.80;99.90;;;;;;5007261;28;20049;-65
2022/12/15 10:16:21;;;;;;;80.07;24.90;;;-0.90;99.90;;;;;;5008640;28;20613;-65
2022/12/15 10:19:02;;;;;;;80.78;25.08;;;-0.90;99.90;;;;;;4970661;28;20085;-64
2022/12/15 10:21:30;;;;;;;86.50;25.45;;;-0.80;99.90;;;;;;4993223;28;20030;-63
2022/12/15 10:24:06;;;;;;;83.07;26.25;;;-0.70;99.90;;;;;;4994618;28;20148;-65
2022/12/15 10:26:33;;;;;;;94.25;29.85;;;-0.60;99.90;;;;;;4994789;28;20091;-65
2022/12/15 10:29:13;;;;;;;90.63;30.08;;;-0.50;99.90;;;;;;5006948;28;20034;-64
2022/12/15 10:31:40;;;;;;;82.28;27.30;;;-0.40;99.90;;;;;;5011342;28;20247;-70
2022/12/15 10:34:21;;;;;;;94.50;31.65;;;-0.50;99.90;;;;;;5008589;28;20046;-65
2022/12/15 10:36:50;;;;;;;92.10;30.25;;;-0.50;99.90;;;;;;5007871;28;20164;-65
2022/12/15 10:39:16;;;;;;;83.97;26.45;;;-0.40;99.90;;;;;;5008624;28;20053;-65
2022/12/15 10:41:42;;;;;;;85.57;27.13;;;-0.30;99.90;;;;;;5007543;28;20104;-68
2022/12/15 10:44:23;;;;;;;88.00;30.55;;;-0.30;99.90;;;;;;5008996;28;20025;-65
2022/12/15 10:46:54;;;;;;;101.00;30.08;;;-0.60;99.90;;;;;;5006560;28;20045;-64
2022/12/15 10:49:23;;;;;;;107.00;33.40;;;-0.60;99.90;;;;;;5008209;28;20185;-62
2022/12/15 10:51:59;;;;;;;85.22;27.55;;;-0.60;99.90;;;;;;4994179;28;20439;-66
2022/12/15 10:54:33;;;;;;;106.90;33.08;;;-0.50;99.90;;;;;;5007007;28;20164;-65
2022/12/15 10:57:02;;;;;;;132.27;40.85;;;-0.40;99.90;;;;;;5004243;28;20446;-65
2022/12/15 10:59:34;;;;;;;156.52;46.47;;;-0.40;99.90;;;;;;5003809;28;20062;-65
2022/12/15 11:02:35;;;;;;;117.07;37.10;;;-0.40;99.90;;;;;;5005389;28;20034;-65
2022/12/15 11:05:14;;;;;;;168.18;49.60;;;-0.40;99.90;;;;;;5008297;28;20262;-64
2022/12/15 11:07:54;;;;;;;129.65;39.22;;;-0.40;99.90;;;;;;4997069;28;20536;-69
2022/12/15 11:13:19;;;;;;;113.82;32.95;;;-0.30;99.90;;;;;;4993724;28;20110;-66
2022/12/15 11:15:46;;;;;;;97.63;30.17;;;-0.40;99.90;;;;;;4998809;28;20041;-66
2022/12/15 11:18:28;;;;;;;119.05;36.67;;;-0.60;99.90;;;;;;5007835;28;20432;-65
2022/12/15 11:21:17;;;;;;;87.97;27.98;;;-0.60;99.90;;;;;;4996485;28;20045;-65
2022/12/15 11:24:15;;;;;;;94.65;29.05;;;-0.70;99.90;;;;;;5000009;28;20053;-69
2022/12/15 11:27:11;;;;;;;111.88;33.08;;;-0.80;99.90;;;;;;5007421;28;20037;-69
2022/12/15 11:29:58;;;;;;;100.80;31.63;;;-0.80;99.90;;;;;;4996158;28;20049;-66
2022/12/15 11:32:32;;;;;;;88.65;28.23;;;-0.70;99.90;;;;;;5002798;28;20034;-65
2022/12/15 11:34:59;;;;;;;90.80;27.63;;;-0.60;99.90;;;;;;5003127;28;20749;-65
2022/12/15 11:37:48;;;;;;;100.28;32.03;;;-0.60;99.90;;;;;;5006830;28;20148;-65
2022/12/15 11:40:41;;;;;;;99.13;29.67;;;-0.60;99.90;;;;;;5009149;28;20049;-65
2022/12/15 11:43:25;;;;;;;92.90;29.60;;;-0.70;99.90;;;;;;5003249;28;20042;-64
2022/12/15 11:46:10;;;;;;;80.53;27.98;;;-0.70;99.90;;;;;;5004996;28;20031;-65
2022/12/15 11:48:56;;;;;;;91.97;28.27;;;-0.90;99.90;;;;;;5006745;28;20456;-65
2022/12/15 11:51:49;;;;;;;84.40;26.23;;;-0.90;99.90;;;;;;5004674;28;20040;-63
2022/12/15 11:54:21;;;;;;;88.38;28.85;;;-0.80;99.90;;;;;;5010346;28;20053;-66
2022/12/15 11:56:54;;;;;;;91.65;28.83;;;-0.80;99.90;;;;;;5021761;28;20030;-64
2022/12/15 11:59:20;;;;;;;89.38;29.30;;;-0.80;99.90;;;;;;5011377;28;20104;-65
2022/12/15 12:02:19;;;;;;;94.05;29.13;;;-0.70;99.90;;;;;;5010151;28;20423;-66
2022/12/15 12:05:04;;;;;;;89.82;28.48;;;-0.60;99.90;;;;;;5010154;28;20030;-66
2022/12/15 12:07:51;;;;;;;114.10;33.58;;;-0.60;99.90;;;;;;5010679;28;20030;-65
2022/12/15 12:10:53;;;;;;;91.18;30.05;;;-0.60;99.90;;;;;;5010584;28;20036;-65
2022/12/15 12:13:22;;;;;;;74.20;24.83;;;-0.50;99.90;;;;;;5022161;28;20116;-63
2022/12/15 12:16:12;;;;;;;76.82;27.27;;;-0.30;99.90;;;;;;5011077;28;20069;-69
2022/12/15 12:18:41;;;;;;;;;;;-0.10;99.90;;;;;;5009452;28;20034;-65
2022/12/15 12:21:13;;;;;;;80.50;25.98;;;0.00;99.90;;;;;;5008607;28;19916;-65
2022/12/15 12:23:48;;;;;;;89.70;31.30;;;0.00;99.90;;;;;;5001212;28;20391;-65
2022/12/15 12:26:37;;;;;;;81.28;27.77;;;-0.10;99.90;;;;;;5010305;28;20542;-65
2022/12/15 12:29:20;;;;;;;83.43;26.48;;;-0.10;99.90;;;;;;4991992;28;20034;-65
2022/12/15 12:32:13;;;;;;;79.03;26.30;;;-0.10;99.90;;;;;;5009023;28;20380;-67
2022/12/15 12:35:15;;;;;;;82.65;27.08;;;-0.10;99.90;;;;;;5011608;28;20042;-66
2022/12/15 12:37:45;;;;;;;79.80;27.77;;;-0.10;99.90;;;;;;5010482;28;20026;-64
2022/12/15 12:40:17;;;;;;;86.13;28.48;;;0.00;99.90;;;;;;5000382;28;20035;-64
2022/12/15 12:42:58;;;;;;;80.50;27.27;;;-0.10;99.90;;;;;;4991770;28;20150;-64
2022/12/15 12:45:51;;;;;;;85.82;26.77;;;-0.20;99.90;;;;;;5009251;28;20163;-65
2022/12/15 12:48:40;;;;;;;82.07;26.60;;;-0.20;99.90;;;;;;5005729;28;20030;-64
2022/12/15 12:51:36;;;;;;;82.67;26.57;;;-0.40;99.90;;;;;;4990740;28;20023;-64
2022/12/15 12:54:09;;;;;;;78.95;26.30;;;-0.30;99.90;;;;;;4997254;28;20034;-64
2022/12/15 12:56:36;;;;;;;76.60;25.98;;;-0.30;99.90;;;;;;5010702;28;20042;-65
2022/12/15 12:59:23;;;;;;;86.07;25.70;;;-0.30;99.90;;;;;;5002398;28;20038;-64
2022/12/15 13:01:49;;;;;;;80.80;24.20;;;-0.20;99.90;;;;;;5005780;28;20037;-66
2022/12/15 13:04:43;;;;;;;81.57;26.00;;;-0.20;99.90;;;;;;5000545;28;20049;-66
2022/12/15 13:07:36;;;;;;;79.85;27.13;;;0.00;99.90;;;;;;4994634;28;20192;-65
2022/12/15 13:10:08;;;;;;;78.82;26.35;;;0.10;99.90;;;;;;4990470;28;20041;-63
2022/12/15 13:12:45;;;;;;;79.35;26.30;;;0.00;99.90;;;;;;4991058;28;20368;-65
2022/12/15 13:15:25;;;;;;;79.22;26.27;;;-0.10;99.90;;;;;;5008747;28;20030;-63
2022/12/15 13:17:56;;;;;;;77.15;25.70;;;0.00;99.90;;;;;;5008341;28;20056;-67
2022/12/15 13:20:22;;;;;;;72.85;24.90;;;0.00;99.90;;;;;;5018011;28;20079;-64
2022/12/15 13:22:48;;;;;;;70.40;23.67;;;-0.10;99.90;;;;;;5002644;28;20069;-66
2022/12/15 13:25:33;;;;;;;83.10;27.30;;;-0.30;99.90;;;;;;4990596;28;20046;-65
2022/12/15 13:28:01;;;;;;;87.80;27.83;;;-0.40;99.90;;;;;;5002114;28;20029;-66
2022/12/15 13:30:27;;;;;;;81.78;27.52;;;-0.40;99.90;;;;;;5009588;28;20034;-65
2022/12/15 13:32:53;;;;;;;79.03;25.83;;;-0.40;99.90;;;;;;5003225;28;20665;-68
2022/12/15 13:35:28;;;;;;;80.80;27.10;;;-0.40;99.90;;;;;;5003325;28;20030;-65
2022/12/15 13:37:58;;;;;;;81.18;24.85;;;-0.40;99.90;;;;;;4995420;28;20141;-66
2022/12/15 13:40:33;;;;;;;80.85;25.95;;;-0.40;99.90;;;;;;4992927;28;20030;-64
2022/12/15 13:43:08;;;;;;;77.80;25.85;;;-0.40;99.90;;;;;;5007541;28;20475;-66
2022/12/15 13:45:52;;;;;;;68.82;25.08;;;-0.30;99.90;;;;;;5006450;28;20030;-63
2022/12/15 13:48:21;;;;;;;75.75;25.60;;;-0.30;99.90;;;;;;4995264;28;20050;-63
2022/12/15 13:50:58;;;;;;;65.80;23.50;;;-0.30;99.90;;;;;;5008527;28;20049;-62
2022/12/15 13:53:25;;;;;;;64.07;22.85;;;-0.30;99.90;;;;;;5007422;28;20053;-65
2022/12/15 13:56:04;;;;;;;72.18;23.77;;;-0.30;99.90;;;;;;5007535;28;20115;-67
2022/12/15 13:58:40;;;;;;;66.40;22.63;;;-0.30;99.90;;;;;;5008713;28;20026;-65
2022/12/15 14:01:25;;;;;;;74.40;23.90;;;-0.30;99.90;;;;;;4993792;28;20088;-67
2022/12/15 14:03:56;;;;;;;65.60;22.58;;;-0.40;99.90;;;;;;4993911;28;20038;-68
2022/12/15 14:06:22;;;;;;;66.50;23.30;;;-0.40;99.90;;;;;;5006053;28;20117;-66
2022/12/15 14:08:49;;;;;;;63.83;22.88;;;-0.40;99.90;;;;;;5015372;28;20219;-65
2022/12/15 14:11:23;;;;;;;60.97;21.77;;;-0.40;99.90;;;;;;5008682;28;20097;-65
2022/12/15 14:13:49;;;;;;;65.68;21.65;;;-0.40;99.90;;;;;;5005804;28;20037;-66
2022/12/15 14:16:20;;;;;;;65.53;21.33;;;-0.50;99.90;;;;;;5008207;28;20026;-63
2022/12/15 14:19:21;;;;;;;66.38;22.27;;;-0.50;99.90;;;;;;4995689;28;20026;-65
2022/12/15 14:21:49;;;;;;;58.42;20.55;;;-0.50;99.90;;;;;;4929115;29;20577;-65
2022/12/15 14:24:25;;;;;;;58.00;19.85;;;-0.50;99.90;;;;;;4996469;28;20623;-64
2022/12/15 14:26:51;;;;;;;62.45;21.48;;;-0.40;99.90;;;;;;5005432;28;20034;-64
2022/12/15 14:29:17;;;;;;;61.17;21.40;;;-0.50;99.90;;;;;;4989453;28;20035;-64
2022/12/15 14:31:52;;;;;;;65.57;21.50;;;-0.50;99.90;;;;;;4992279;28;20031;-64
2022/12/15 14:34:37;;;;;;;68.07;23.33;;;-0.50;99.90;;;;;;4989094;28;20034;-65
2022/12/15 14:37:09;;;;;;;75.40;24.55;;;-0.40;99.90;;;;;;5003342;28;20383;-66
2022/12/15 14:39:47;;;;;;;66.28;22.92;;;-0.40;99.90;;;;;;5023355;28;20033;-65
2022/12/15 14:42:25;;;;;;;61.28;21.02;;;-0.40;99.90;;;;;;5015516;28;20583;-64
2022/12/15 14:44:52;;;;;;;64.47;22.25;;;-0.30;99.90;;;;;;5008371;28;20042;-63
2022/12/15 14:47:51;;;;;;;69.47;24.02;;;-0.30;99.90;;;;;;5002399;28;20042;-66
2022/12/15 14:50:18;;;;;;;66.97;24.88;;;-0.40;99.90;;;;;;5006976;28;20057;-67
2022/12/15 14:52:44;;;;;;;67.50;23.83;;;-0.40;99.90;;;;;;5027410;28;20049;-64
2022/12/15 14:55:34;;;;;;;61.58;21.52;;;-0.50;99.90;;;;;;5027817;28;20465;-66
2022/12/15 14:58:00;;;;;;;82.22;26.38;;;-0.50;99.90;;;;;;5027929;28;20419;-65
2022/12/15 15:00:47;;;;;;;63.92;21.70;;;-0.60;99.90;;;;;;5028670;28;20390;-65
2022/12/15 15:03:17;;;;;;;67.57;23.00;;;-0.70;99.90;;;;;;5015488;28;20038;-66
2022/12/15 15:05:58;;;;;;;69.18;22.88;;;-0.70;99.90;;;;;;5007395;28;20440;-65
2022/12/15 15:08:30;;;;;;;78.80;25.77;;;-0.70;99.90;;;;;;4989245;28;20038;-67
2022/12/15 15:11:01;;;;;;;90.95;29.70;;;-0.80;99.90;;;;;;4988739;28;20073;-67